sensor_id;sensor_type;location;lat;lon;timestamp;temperature;humidity
8856;DHT22;4464;50.882;4.730;2023-04-29T00:02:21;11.60;99.90
8856;DHT22;4464;50.882;4.730;2023-04-29T00:04:47;11.50;99.90
8856;DHT22;4464;50.882;4.730;2023-04-29T00:07:13;11.50;99.90
8856;DHT22;4464;50.882;4.730;2023-04-29T00:09:40;11.40;99.90
8856;DHT22;4464;50.882;4.730;2023-04-29T00:12:08;11.30;99.90
8856;DHT22;4464;50.882;4.730;2023-04-29T00:14:35;11.10;99.90
8856;DHT22;4464;50.882;4.730;2023-04-29T00:17:03;11.10;99.90
8856;DHT22;4464;50.882;4.730;2023-04-29T00:19:32;11.10;99.90
8856;DHT22;4464;50.882;4.730;2023-04-29T00:21:58;11.00;99.90
8856;DHT22;4464;50.882;4.730;2023-04-29T00:24:24;11.00;99.90
8856;DHT22;4464;50.882;4.730;2023-04-29T00:26:49;10.90;99.90
8856;DHT22;4464;50.882;4.730;2023-04-29T00:29:16;10.90;99.90
8856;DHT22;4464;50.882;4.730;2023-04-29T00:31:41;10.90;99.90
8856;DHT22;4464;50.882;4.730;2023-04-29T00:34:09;10.90;99.90
8856;DHT22;4464;50.882;4.730;2023-04-29T00:36:35;10.90;99.90
8856;DHT22;4464;50.882;4.730;2023-04-29T00:39:01;10.80;99.90
8856;DHT22;4464;50.882;4.730;2023-04-29T00:41:27;10.80;99.90
8856;DHT22;4464;50.882;4.730;2023-04-29T00:43:54;10.80;99.90
8856;DHT22;4464;50.882;4.730;2023-04-29T00:46:19;10.80;99.90
8856;DHT22;4464;50.882;4.730;2023-04-29T00:48:45;10.80;99.90
8856;DHT22;4464;50.882;4.730;2023-04-29T00:51:11;10.70;99.90
8856;DHT22;4464;50.882;4.730;2023-04-29T00:53:40;10.70;99.90
8856;DHT22;4464;50.882;4.730;2023-04-29T00:56:08;10.80;99.90
8856;DHT22;4464;50.882;4.730;2023-04-29T00:58:39;10.70;99.90
8856;DHT22;4464;50.882;4.730;2023-04-29T01:01:05;10.80;99.90
8856;DHT22;4464;50.882;4.730;2023-04-29T01:03:31;10.70;99.90
8856;DHT22;4464;50.882;4.730;2023-04-29T01:11:10;10.70;99.90
8856;DHT22;4464;50.882;4.730;2023-04-29T01:13:50;10.70;99.90
8856;DHT22;4464;50.882;4.730;2023-04-29T01:16:29;10.70;99.90
8856;DHT22;4464;50.882;4.730;2023-04-29T01:19:02;10.60;99.90
8856;DHT22;4464;50.882;4.730;2023-04-29T01:21:31;10.60;99.90
8856;DHT22;4464;50.882;4.730;2023-04-29T01:23:59;10.60;99.90
8856;DHT22;4464;50.882;4.730;2023-04-29T01:26:29;10.50;99.90
8856;DHT22;4464;50.882;4.730;2023-04-29T01:31:31;10.50;99.90
8856;DHT22;4464;50.882;4.730;2023-04-29T01:34:18;10.50;99.90
8856;DHT22;4464;50.882;4.730;2023-04-29T01:41:56;10.50;99.90
8856;DHT22;4464;50.882;4.730;2023-04-29T01:44:28;10.40;99.90
8856;DHT22;4464;50.882;4.730;2023-04-29T01:46:54;10.40;99.90
8856;DHT22;4464;50.882;4.730;2023-04-29T01:49:24;10.50;99.90
8856;DHT22;4464;50.882;4.730;2023-04-29T01:51:51;10.40;99.90
8856;DHT22;4464;50.882;4.730;2023-04-29T01:54:16;10.30;99.90
8856;DHT22;4464;50.882;4.730;2023-04-29T01:56:44;10.30;99.90
8856;DHT22;4464;50.882;4.730;2023-04-29T01:59:10;10.30;99.90
8856;DHT22;4464;50.882;4.730;2023-04-29T02:01:36;10.30;99.90
8856;DHT22;4464;50.882;4.730;2023-04-29T02:04:04;10.30;99.90
8856;DHT22;4464;50.882;4.730;2023-04-29T02:06:30;10.20;99.90
8856;DHT22;4464;50.882;4.730;2023-04-29T02:08:57;10.20;99.90
8856;DHT22;4464;50.882;4.730;2023-04-29T02:11:23;10.20;99.90
8856;DHT22;4464;50.882;4.730;2023-04-29T02:13:49;10.20;99.90
8856;DHT22;4464;50.882;4.730;2023-04-29T02:16:15;10.20;99.90
8856;DHT22;4464;50.882;4.730;2023-04-29T02:18:41;10.20;99.90
8856;DHT22;4464;50.882;4.730;2023-04-29T02:21:07;10.20;99.90
8856;DHT22;4464;50.882;4.730;2023-04-29T02:23:33;10.20;99.90
8856;DHT22;4464;50.882;4.730;2023-04-29T02:25:59;10.30;99.90
8856;DHT22;4464;50.882;4.730;2023-04-29T02:28:26;10.20;99.90
8856;DHT22;4464;50.882;4.730;2023-04-29T02:30:51;10.30;99.90
8856;DHT22;4464;50.882;4.730;2023-04-29T02:33:17;10.20;99.90
8856;DHT22;4464;50.882;4.730;2023-04-29T02:35:43;10.20;99.90
8856;DHT22;4464;50.882;4.730;2023-04-29T02:38:09;10.20;99.90
8856;DHT22;4464;50.882;4.730;2023-04-29T02:40:48;10.20;99.90
8856;DHT22;4464;50.882;4.730;2023-04-29T02:43:14;10.20;99.90
8856;DHT22;4464;50.882;4.730;2023-04-29T02:45:40;10.10;99.90
8856;DHT22;4464;50.882;4.730;2023-04-29T02:48:09;10.00;99.90
8856;DHT22;4464;50.882;4.730;2023-04-29T02:50:34;10.10;99.90
8856;DHT22;4464;50.882;4.730;2023-04-29T02:53:00;10.00;99.90
8856;DHT22;4464;50.882;4.730;2023-04-29T02:55:28;10.10;99.90
8856;DHT22;4464;50.882;4.730;2023-04-29T02:57:53;10.00;99.90
8856;DHT22;4464;50.882;4.730;2023-04-29T03:00:19;10.10;99.90
8856;DHT22;4464;50.882;4.730;2023-04-29T03:02:45;10.00;99.90
8856;DHT22;4464;50.882;4.730;2023-04-29T03:05:11;10.10;99.90
8856;DHT22;4464;50.882;4.730;2023-04-29T03:07:39;10.10;99.90
8856;DHT22;4464;50.882;4.730;2023-04-29T03:10:05;10.10;99.90
8856;DHT22;4464;50.882;4.730;2023-04-29T03:12:31;10.10;99.90
8856;DHT22;4464;50.882;4.730;2023-04-29T03:14:56;10.10;99.90
8856;DHT22;4464;50.882;4.730;2023-04-29T03:17:22;10.10;99.90
8856;DHT22;4464;50.882;4.730;2023-04-29T03:19:51;10.00;99.90
8856;DHT22;4464;50.882;4.730;2023-04-29T03:22:18;10.00;99.90
8856;DHT22;4464;50.882;4.730;2023-04-29T03:24:44;10.10;99.90
8856;DHT22;4464;50.882;4.730;2023-04-29T03:27:10;10.10;99.90
8856;DHT22;4464;50.882;4.730;2023-04-29T03:29:37;10.00;99.90
8856;DHT22;4464;50.882;4.730;2023-04-29T03:32:03;10.10;99.90
8856;DHT22;4464;50.882;4.730;2023-04-29T03:34:31;10.20;99.90
8856;DHT22;4464;50.882;4.730;2023-04-29T03:36:57;10.10;99.90
8856;DHT22;4464;50.882;4.730;2023-04-29T03:39:25;10.00;99.90
8856;DHT22;4464;50.882;4.730;2023-04-29T03:41:56;10.10;99.90
8856;DHT22;4464;50.882;4.730;2023-04-29T03:44:21;10.00;99.90
8856;DHT22;4464;50.882;4.730;2023-04-29T03:46:47;10.00;99.90
8856;DHT22;4464;50.882;4.730;2023-04-29T03:49:13;10.00;99.90
8856;DHT22;4464;50.882;4.730;2023-04-29T03:51:41;9.90;99.90
8856;DHT22;4464;50.882;4.730;2023-04-29T03:54:07;10.00;99.90
8856;DHT22;4464;50.882;4.730;2023-04-29T03:56:36;10.00;99.90
8856;DHT22;4464;50.882;4.730;2023-04-29T03:59:04;10.00;99.90
8856;DHT22;4464;50.882;4.730;2023-04-29T04:01:30;10.00;99.90
8856;DHT22;4464;50.882;4.730;2023-04-29T04:03:56;10.00;99.90
8856;DHT22;4464;50.882;4.730;2023-04-29T04:06:22;10.00;99.90
8856;DHT22;4464;50.882;4.730;2023-04-29T04:08:48;10.00;99.90
8856;DHT22;4464;50.882;4.730;2023-04-29T04:11:13;10.00;99.90
8856;DHT22;4464;50.882;4.730;2023-04-29T04:13:43;9.90;99.90
8856;DHT22;4464;50.882;4.730;2023-04-29T04:16:11;10.00;99.90
8856;DHT22;4464;50.882;4.730;2023-04-29T04:18:37;9.90;99.90
8856;DHT22;4464;50.882;4.730;2023-04-29T04:21:10;9.90;99.90
8856;DHT22;4464;50.882;4.730;2023-04-29T04:23:37;9.90;99.90
8856;DHT22;4464;50.882;4.730;2023-04-29T04:26:06;9.90;99.90
8856;DHT22;4464;50.882;4.730;2023-04-29T04:28:31;9.90;99.90
8856;DHT22;4464;50.882;4.730;2023-04-29T04:30:57;9.90;99.90
8856;DHT22;4464;50.882;4.730;2023-04-29T04:33:24;9.90;99.90
8856;DHT22;4464;50.882;4.730;2023-04-29T04:35:53;10.00;99.90
8856;DHT22;4464;50.882;4.730;2023-04-29T04:38:23;10.00;99.90
8856;DHT22;4464;50.882;4.730;2023-04-29T04:40:50;10.00;99.90
8856;DHT22;4464;50.882;4.730;2023-04-29T04:43:16;10.00;99.90
8856;DHT22;4464;50.882;4.730;2023-04-29T04:45:42;10.00;99.90
8856;DHT22;4464;50.882;4.730;2023-04-29T04:48:08;10.00;99.90
8856;DHT22;4464;50.882;4.730;2023-04-29T04:50:33;10.10;99.90
8856;DHT22;4464;50.882;4.730;2023-04-29T04:53:01;10.10;99.90
8856;DHT22;4464;50.882;4.730;2023-04-29T04:55:29;10.00;99.90
8856;DHT22;4464;50.882;4.730;2023-04-29T04:57:56;10.00;99.90
8856;DHT22;4464;50.882;4.730;2023-04-29T05:00:22;10.00;99.90
8856;DHT22;4464;50.882;4.730;2023-04-29T05:02:48;9.90;99.90
8856;DHT22;4464;50.882;4.730;2023-04-29T05:05:14;10.00;99.90
8856;DHT22;4464;50.882;4.730;2023-04-29T05:07:39;10.00;99.90
8856;DHT22;4464;50.882;4.730;2023-04-29T05:10:06;10.00;99.90
8856;DHT22;4464;50.882;4.730;2023-04-29T05:12:32;10.00;99.90
8856;DHT22;4464;50.882;4.730;2023-04-29T05:15:02;10.00;99.90
8856;DHT22;4464;50.882;4.730;2023-04-29T05:17:29;10.00;99.90
8856;DHT22;4464;50.882;4.730;2023-04-29T05:19:55;10.00;99.90
8856;DHT22;4464;50.882;4.730;2023-04-29T05:22:21;10.10;99.90
8856;DHT22;4464;50.882;4.730;2023-04-29T05:24:48;10.10;99.90
8856;DHT22;4464;50.882;4.730;2023-04-29T05:27:15;10.10;99.90
8856;DHT22;4464;50.882;4.730;2023-04-29T05:29:41;10.10;99.90
8856;DHT22;4464;50.882;4.730;2023-04-29T05:32:07;10.00;99.90
8856;DHT22;4464;50.882;4.730;2023-04-29T05:34:35;10.00;99.90
8856;DHT22;4464;50.882;4.730;2023-04-29T05:37:04;10.00;99.90
8856;DHT22;4464;50.882;4.730;2023-04-29T05:39:29;10.00;99.90
8856;DHT22;4464;50.882;4.730;2023-04-29T05:41:55;10.00;99.90
8856;DHT22;4464;50.882;4.730;2023-04-29T05:44:21;10.00;99.90
8856;DHT22;4464;50.882;4.730;2023-04-29T05:46:47;10.00;99.90
8856;DHT22;4464;50.882;4.730;2023-04-29T05:49:13;10.10;99.90
8856;DHT22;4464;50.882;4.730;2023-04-29T05:51:40;10.10;99.90
8856;DHT22;4464;50.882;4.730;2023-04-29T05:54:05;10.20;99.90
8856;DHT22;4464;50.882;4.730;2023-04-29T05:56:31;10.20;99.90
8856;DHT22;4464;50.882;4.730;2023-04-29T05:58:59;10.20;99.90
8856;DHT22;4464;50.882;4.730;2023-04-29T06:01:28;10.20;99.90
8856;DHT22;4464;50.882;4.730;2023-04-29T06:03:53;10.20;99.90
8856;DHT22;4464;50.882;4.730;2023-04-29T06:06:19;10.10;99.90
8856;DHT22;4464;50.882;4.730;2023-04-29T06:08:45;10.10;99.90
8856;DHT22;4464;50.882;4.730;2023-04-29T06:11:13;10.10;99.90
8856;DHT22;4464;50.882;4.730;2023-04-29T06:13:39;10.00;99.90
8856;DHT22;4464;50.882;4.730;2023-04-29T06:16:05;10.00;99.90
8856;DHT22;4464;50.882;4.730;2023-04-29T06:18:30;10.00;99.90
8856;DHT22;4464;50.882;4.730;2023-04-29T06:20:58;10.10;99.90
8856;DHT22;4464;50.882;4.730;2023-04-29T06:23:26;10.20;99.90
8856;DHT22;4464;50.882;4.730;2023-04-29T06:25:52;10.20;99.90
8856;DHT22;4464;50.882;4.730;2023-04-29T06:28:20;10.10;99.90
8856;DHT22;4464;50.882;4.730;2023-04-29T06:30:46;10.10;99.90
8856;DHT22;4464;50.882;4.730;2023-04-29T06:33:14;10.10;99.90
8856;DHT22;4464;50.882;4.730;2023-04-29T06:35:40;10.10;99.90
8856;DHT22;4464;50.882;4.730;2023-04-29T06:38:06;10.10;99.90
8856;DHT22;4464;50.882;4.730;2023-04-29T06:40:35;10.10;99.90
8856;DHT22;4464;50.882;4.730;2023-04-29T06:43:03;10.10;99.90
8856;DHT22;4464;50.882;4.730;2023-04-29T06:45:29;10.20;99.90
8856;DHT22;4464;50.882;4.730;2023-04-29T06:47:57;10.20;99.90
8856;DHT22;4464;50.882;4.730;2023-04-29T06:50:23;10.30;99.90
8856;DHT22;4464;50.882;4.730;2023-04-29T06:52:51;10.30;99.90
8856;DHT22;4464;50.882;4.730;2023-04-29T06:55:21;10.30;99.90
8856;DHT22;4464;50.882;4.730;2023-04-29T06:57:46;10.30;99.90
8856;DHT22;4464;50.882;4.730;2023-04-29T07:00:12;10.40;99.90
8856;DHT22;4464;50.882;4.730;2023-04-29T07:02:39;10.50;99.90
8856;DHT22;4464;50.882;4.730;2023-04-29T07:05:05;10.40;99.90
8856;DHT22;4464;50.882;4.730;2023-04-29T07:07:31;10.40;99.90
8856;DHT22;4464;50.882;4.730;2023-04-29T07:09:57;10.40;99.90
8856;DHT22;4464;50.882;4.730;2023-04-29T07:12:25;10.40;99.90
8856;DHT22;4464;50.882;4.730;2023-04-29T07:14:51;10.40;99.90
8856;DHT22;4464;50.882;4.730;2023-04-29T07:17:19;10.40;99.90
8856;DHT22;4464;50.882;4.730;2023-04-29T07:19:45;10.40;99.90
8856;DHT22;4464;50.882;4.730;2023-04-29T07:22:11;10.30;99.90
8856;DHT22;4464;50.882;4.730;2023-04-29T07:24:41;10.10;99.90
8856;DHT22;4464;50.882;4.730;2023-04-29T07:27:07;10.10;99.90
8856;DHT22;4464;50.882;4.730;2023-04-29T07:29:35;10.00;99.90
8856;DHT22;4464;50.882;4.730;2023-04-29T07:32:01;10.00;99.90
8856;DHT22;4464;50.882;4.730;2023-04-29T07:34:27;10.10;99.90
8856;DHT22;4464;50.882;4.730;2023-04-29T07:36:52;10.00;99.90
8856;DHT22;4464;50.882;4.730;2023-04-29T07:39:18;10.10;99.90
8856;DHT22;4464;50.882;4.730;2023-04-29T07:41:44;10.30;99.90
8856;DHT22;4464;50.882;4.730;2023-04-29T07:44:10;10.40;99.90
8856;DHT22;4464;50.882;4.730;2023-04-29T07:46:38;10.40;99.90
8856;DHT22;4464;50.882;4.730;2023-04-29T07:49:04;10.50;99.90
8856;DHT22;4464;50.882;4.730;2023-04-29T07:51:31;10.60;99.90
8856;DHT22;4464;50.882;4.730;2023-04-29T07:53:59;10.70;99.90
8856;DHT22;4464;50.882;4.730;2023-04-29T07:56:25;10.90;99.90
8856;DHT22;4464;50.882;4.730;2023-04-29T07:58:51;10.80;99.90
8856;DHT22;4464;50.882;4.730;2023-04-29T08:01:16;11.10;99.90
8856;DHT22;4464;50.882;4.730;2023-04-29T08:03:42;11.10;99.90
8856;DHT22;4464;50.882;4.730;2023-04-29T08:06:08;11.30;99.90
8856;DHT22;4464;50.882;4.730;2023-04-29T08:08:36;11.20;99.90
8856;DHT22;4464;50.882;4.730;2023-04-29T08:11:02;11.40;99.90
8856;DHT22;4464;50.882;4.730;2023-04-29T08:13:30;11.50;99.90
8856;DHT22;4464;50.882;4.730;2023-04-29T08:16:00;11.80;99.90
8856;DHT22;4464;50.882;4.730;2023-04-29T08:18:28;11.90;99.90
8856;DHT22;4464;50.882;4.730;2023-04-29T08:20:56;12.00;99.90
8856;DHT22;4464;50.882;4.730;2023-04-29T08:23:21;12.20;99.90
8856;DHT22;4464;50.882;4.730;2023-04-29T08:25:49;12.10;99.90
8856;DHT22;4464;50.882;4.730;2023-04-29T08:28:16;11.90;99.90
8856;DHT22;4464;50.882;4.730;2023-04-29T08:30:42;11.80;99.90
8856;DHT22;4464;50.882;4.730;2023-04-29T08:33:08;11.60;99.90
8856;DHT22;4464;50.882;4.730;2023-04-29T08:35:37;11.60;99.90
8856;DHT22;4464;50.882;4.730;2023-04-29T08:38:03;11.50;99.90
8856;DHT22;4464;50.882;4.730;2023-04-29T08:40:33;11.50;99.90
8856;DHT22;4464;50.882;4.730;2023-04-29T08:43:04;11.60;99.90
8856;DHT22;4464;50.882;4.730;2023-04-29T08:45:30;11.70;99.90
8856;DHT22;4464;50.882;4.730;2023-04-29T08:48:00;11.80;99.90
8856;DHT22;4464;50.882;4.730;2023-04-29T08:50:27;11.80;99.90
8856;DHT22;4464;50.882;4.730;2023-04-29T08:52:55;11.90;99.90
8856;DHT22;4464;50.882;4.730;2023-04-29T08:55:21;12.10;99.90
8856;DHT22;4464;50.882;4.730;2023-04-29T08:57:49;12.30;99.90
8856;DHT22;4464;50.882;4.730;2023-04-29T09:00:17;12.10;99.90
8856;DHT22;4464;50.882;4.730;2023-04-29T09:02:49;11.90;99.90
8856;DHT22;4464;50.882;4.730;2023-04-29T09:05:18;11.70;99.90
8856;DHT22;4464;50.882;4.730;2023-04-29T09:07:44;11.80;99.90
8856;DHT22;4464;50.882;4.730;2023-04-29T09:10:11;11.80;99.90
8856;DHT22;4464;50.882;4.730;2023-04-29T09:12:37;11.90;99.90
8856;DHT22;4464;50.882;4.730;2023-04-29T09:15:03;12.10;99.90
8856;DHT22;4464;50.882;4.730;2023-04-29T09:17:39;12.20;99.90
8856;DHT22;4464;50.882;4.730;2023-04-29T09:22:50;11.80;99.90
8856;DHT22;4464;50.882;4.730;2023-04-29T09:25:20;11.90;99.90
8856;DHT22;4464;50.882;4.730;2023-04-29T09:27:46;12.10;99.90
8856;DHT22;4464;50.882;4.730;2023-04-29T09:30:14;12.60;99.90
8856;DHT22;4464;50.882;4.730;2023-04-29T09:32:41;12.70;99.90
8856;DHT22;4464;50.882;4.730;2023-04-29T09:35:26;12.80;99.90
8856;DHT22;4464;50.882;4.730;2023-04-29T09:37:53;13.10;99.90
8856;DHT22;4464;50.882;4.730;2023-04-29T09:40:33;13.20;99.90
8856;DHT22;4464;50.882;4.730;2023-04-29T09:43:02;13.20;99.90
8856;DHT22;4464;50.882;4.730;2023-04-29T09:45:47;13.30;99.90
8856;DHT22;4464;50.882;4.730;2023-04-29T09:48:16;13.50;99.90
8856;DHT22;4464;50.882;4.730;2023-04-29T09:50:43;13.60;99.90
8856;DHT22;4464;50.882;4.730;2023-04-29T09:53:10;13.50;99.90
8856;DHT22;4464;50.882;4.730;2023-04-29T09:55:58;13.70;99.90
8856;DHT22;4464;50.882;4.730;2023-04-29T09:58:29;14.10;99.90
8856;DHT22;4464;50.882;4.730;2023-04-29T10:00:58;14.30;99.90
8856;DHT22;4464;50.882;4.730;2023-04-29T10:03:32;14.60;99.90
8856;DHT22;4464;50.882;4.730;2023-04-29T10:05:59;14.50;99.90
8856;DHT22;4464;50.882;4.730;2023-04-29T10:08:26;14.40;99.90
8856;DHT22;4464;50.882;4.730;2023-04-29T10:10:59;14.10;99.90
8856;DHT22;4464;50.882;4.730;2023-04-29T10:13:25;14.00;99.90
8856;DHT22;4464;50.882;4.730;2023-04-29T10:16:12;14.00;99.90
8856;DHT22;4464;50.882;4.730;2023-04-29T10:18:41;14.30;99.90
8856;DHT22;4464;50.882;4.730;2023-04-29T10:21:14;14.20;99.90
8856;DHT22;4464;50.882;4.730;2023-04-29T10:23:42;14.50;99.90
8856;DHT22;4464;50.882;4.730;2023-04-29T10:26:11;14.30;99.90
8856;DHT22;4464;50.882;4.730;2023-04-29T10:28:39;14.50;99.90
8856;DHT22;4464;50.882;4.730;2023-04-29T10:31:06;14.40;99.90
8856;DHT22;4464;50.882;4.730;2023-04-29T10:33:34;14.50;99.90
8856;DHT22;4464;50.882;4.730;2023-04-29T10:36:03;14.60;99.90
8856;DHT22;4464;50.882;4.730;2023-04-29T10:38:37;14.70;99.90
8856;DHT22;4464;50.882;4.730;2023-04-29T10:41:09;15.10;99.90
8856;DHT22;4464;50.882;4.730;2023-04-29T10:43:38;15.20;99.90
8856;DHT22;4464;50.882;4.730;2023-04-29T10:46:17;15.40;99.90
8856;DHT22;4464;50.882;4.730;2023-04-29T10:48:48;15.50;99.90
8856;DHT22;4464;50.882;4.730;2023-04-29T10:53:58;15.10;99.90
8856;DHT22;4464;50.882;4.730;2023-04-29T10:56:38;15.20;99.90
8856;DHT22;4464;50.882;4.730;2023-04-29T10:59:09;15.30;99.90
8856;DHT22;4464;50.882;4.730;2023-04-29T11:01:48;14.60;99.90
8856;DHT22;4464;50.882;4.730;2023-04-29T11:04:15;14.40;99.90
8856;DHT22;4464;50.882;4.730;2023-04-29T11:06:51;14.60;99.90
8856;DHT22;4464;50.882;4.730;2023-04-29T11:09:28;14.70;99.90
8856;DHT22;4464;50.882;4.730;2023-04-29T11:12:04;14.70;99.90
8856;DHT22;4464;50.882;4.730;2023-04-29T11:17:16;14.70;99.90
8856;DHT22;4464;50.882;4.730;2023-04-29T11:19:48;15.00;99.90
8856;DHT22;4464;50.882;4.730;2023-04-29T11:24:57;15.70;99.90
8856;DHT22;4464;50.882;4.730;2023-04-29T11:27:30;16.00;99.90
8856;DHT22;4464;50.882;4.730;2023-04-29T11:29:57;16.20;99.90
8856;DHT22;4464;50.882;4.730;2023-04-29T11:32:33;16.50;99.90
8856;DHT22;4464;50.882;4.730;2023-04-29T11:35:16;16.90;99.90
8856;DHT22;4464;50.882;4.730;2023-04-29T11:37:45;17.00;99.90
8856;DHT22;4464;50.882;4.730;2023-04-29T11:40:14;16.90;99.90
8856;DHT22;4464;50.882;4.730;2023-04-29T11:42:45;17.50;99.90
8856;DHT22;4464;50.882;4.730;2023-04-29T11:45:13;17.60;99.90
8856;DHT22;4464;50.882;4.730;2023-04-29T11:47:48;17.90;99.90
8856;DHT22;4464;50.882;4.730;2023-04-29T11:50:17;17.70;99.90
8856;DHT22;4464;50.882;4.730;2023-04-29T11:52:46;17.30;99.90
8856;DHT22;4464;50.882;4.730;2023-04-29T11:55:14;16.60;99.90
8856;DHT22;4464;50.882;4.730;2023-04-29T11:57:40;16.00;99.90
8856;DHT22;4464;50.882;4.730;2023-04-29T12:00:12;15.70;99.90
8856;DHT22;4464;50.882;4.730;2023-04-29T12:02:38;15.40;99.90
8856;DHT22;4464;50.882;4.730;2023-04-29T12:05:06;15.50;99.90
8856;DHT22;4464;50.882;4.730;2023-04-29T12:07:34;15.50;99.90
8856;DHT22;4464;50.882;4.730;2023-04-29T12:10:01;15.20;99.90
8856;DHT22;4464;50.882;4.730;2023-04-29T12:12:33;15.80;99.90
8856;DHT22;4464;50.882;4.730;2023-04-29T12:15:02;16.10;99.90
8856;DHT22;4464;50.882;4.730;2023-04-29T12:17:28;16.40;99.90
8856;DHT22;4464;50.882;4.730;2023-04-29T12:19:58;16.80;99.90
8856;DHT22;4464;50.882;4.730;2023-04-29T12:22:33;17.40;99.90
8856;DHT22;4464;50.882;4.730;2023-04-29T12:24:58;17.70;99.90
8856;DHT22;4464;50.882;4.730;2023-04-29T12:27:26;17.70;99.90
8856;DHT22;4464;50.882;4.730;2023-04-29T12:29:52;17.90;99.90
8856;DHT22;4464;50.882;4.730;2023-04-29T12:32:22;17.70;99.90
8856;DHT22;4464;50.882;4.730;2023-04-29T12:34:50;17.50;99.90
8856;DHT22;4464;50.882;4.730;2023-04-29T12:37:20;17.30;99.90
8856;DHT22;4464;50.882;4.730;2023-04-29T12:39:48;17.10;99.90
8856;DHT22;4464;50.882;4.730;2023-04-29T12:42:17;16.70;99.90
8856;DHT22;4464;50.882;4.730;2023-04-29T12:44:48;16.50;99.90
8856;DHT22;4464;50.882;4.730;2023-04-29T12:47:15;16.20;99.90
8856;DHT22;4464;50.882;4.730;2023-04-29T12:49:44;16.00;99.90
8856;DHT22;4464;50.882;4.730;2023-04-29T12:52:10;15.90;99.90
8856;DHT22;4464;50.882;4.730;2023-04-29T12:54:38;15.90;99.90
8856;DHT22;4464;50.882;4.730;2023-04-29T12:57:06;15.80;99.90
8856;DHT22;4464;50.882;4.730;2023-04-29T12:59:35;15.90;99.90
8856;DHT22;4464;50.882;4.730;2023-04-29T13:02:03;16.00;99.90
8856;DHT22;4464;50.882;4.730;2023-04-29T13:04:29;16.30;99.90
8856;DHT22;4464;50.882;4.730;2023-04-29T13:06:57;16.50;99.90
8856;DHT22;4464;50.882;4.730;2023-04-29T13:09:25;16.70;99.90
8856;DHT22;4464;50.882;4.730;2023-04-29T13:11:51;16.70;99.90
8856;DHT22;4464;50.882;4.730;2023-04-29T13:14:17;16.90;99.90
8856;DHT22;4464;50.882;4.730;2023-04-29T13:16:43;16.90;99.90
8856;DHT22;4464;50.882;4.730;2023-04-29T13:19:09;17.10;99.90
8856;DHT22;4464;50.882;4.730;2023-04-29T13:21:35;17.10;99.90
8856;DHT22;4464;50.882;4.730;2023-04-29T13:24:04;17.00;99.90
8856;DHT22;4464;50.882;4.730;2023-04-29T13:26:32;16.40;99.90
8856;DHT22;4464;50.882;4.730;2023-04-29T13:28:58;16.60;99.90
8856;DHT22;4464;50.882;4.730;2023-04-29T13:31:24;16.90;99.90
8856;DHT22;4464;50.882;4.730;2023-04-29T13:33:52;17.00;99.90
8856;DHT22;4464;50.882;4.730;2023-04-29T13:36:19;16.90;99.90
8856;DHT22;4464;50.882;4.730;2023-04-29T13:38:48;16.80;99.90
8856;DHT22;4464;50.882;4.730;2023-04-29T13:41:16;17.00;99.90
8856;DHT22;4464;50.882;4.730;2023-04-29T13:43:42;17.00;99.90
8856;DHT22;4464;50.882;4.730;2023-04-29T13:46:07;16.80;99.90
8856;DHT22;4464;50.882;4.730;2023-04-29T13:48:33;16.70;99.90
8856;DHT22;4464;50.882;4.730;2023-04-29T13:50:59;16.20;99.90
8856;DHT22;4464;50.882;4.730;2023-04-29T13:53:25;15.80;99.90
8856;DHT22;4464;50.882;4.730;2023-04-29T13:55:51;15.70;99.90
8856;DHT22;4464;50.882;4.730;2023-04-29T13:58:19;16.10;99.90
8856;DHT22;4464;50.882;4.730;2023-04-29T14:00:45;16.40;99.90
8856;DHT22;4464;50.882;4.730;2023-04-29T14:03:10;16.90;99.90
8856;DHT22;4464;50.882;4.730;2023-04-29T14:05:40;17.20;99.90
8856;DHT22;4464;50.882;4.730;2023-04-29T14:08:06;17.20;99.90
8856;DHT22;4464;50.882;4.730;2023-04-29T14:10:34;17.40;99.90
8856;DHT22;4464;50.882;4.730;2023-04-29T14:13:01;17.50;99.90
8856;DHT22;4464;50.882;4.730;2023-04-29T14:15:27;17.80;99.90
8856;DHT22;4464;50.882;4.730;2023-04-29T14:17:53;17.10;99.90
8856;DHT22;4464;50.882;4.730;2023-04-29T14:20:22;17.30;99.90
8856;DHT22;4464;50.882;4.730;2023-04-29T14:22:48;16.80;99.90
8856;DHT22;4464;50.882;4.730;2023-04-29T14:25:15;15.90;99.90
8856;DHT22;4464;50.882;4.730;2023-04-29T14:27:41;16.00;99.90
8856;DHT22;4464;50.882;4.730;2023-04-29T14:30:07;15.90;99.90
8856;DHT22;4464;50.882;4.730;2023-04-29T14:32:35;15.90;99.90
8856;DHT22;4464;50.882;4.730;2023-04-29T14:35:04;15.90;99.90
8856;DHT22;4464;50.882;4.730;2023-04-29T14:37:32;15.80;99.90
8856;DHT22;4464;50.882;4.730;2023-04-29T14:39:57;15.70;99.90
8856;DHT22;4464;50.882;4.730;2023-04-29T14:42:25;15.50;99.90
8856;DHT22;4464;50.882;4.730;2023-04-29T14:44:53;15.40;99.90
8856;DHT22;4464;50.882;4.730;2023-04-29T14:47:19;15.50;99.90
8856;DHT22;4464;50.882;4.730;2023-04-29T14:49:45;15.30;99.90
8856;DHT22;4464;50.882;4.730;2023-04-29T14:52:11;15.40;99.90
8856;DHT22;4464;50.882;4.730;2023-04-29T14:54:39;15.50;99.90
8856;DHT22;4464;50.882;4.730;2023-04-29T14:57:07;15.70;99.90
8856;DHT22;4464;50.882;4.730;2023-04-29T14:59:33;15.50;99.90
8856;DHT22;4464;50.882;4.730;2023-04-29T15:02:01;15.70;99.90
8856;DHT22;4464;50.882;4.730;2023-04-29T15:04:27;15.80;99.90
8856;DHT22;4464;50.882;4.730;2023-04-29T15:06:58;16.40;99.90
8856;DHT22;4464;50.882;4.730;2023-04-29T15:09:27;16.40;99.90
8856;DHT22;4464;50.882;4.730;2023-04-29T15:11:53;16.70;99.90
8856;DHT22;4464;50.882;4.730;2023-04-29T15:14:21;16.80;99.90
8856;DHT22;4464;50.882;4.730;2023-04-29T15:16:47;17.00;99.90
8856;DHT22;4464;50.882;4.730;2023-04-29T15:19:13;17.10;99.90
8856;DHT22;4464;50.882;4.730;2023-04-29T15:21:39;17.10;99.90
8856;DHT22;4464;50.882;4.730;2023-04-29T15:24:07;17.60;99.90
8856;DHT22;4464;50.882;4.730;2023-04-29T15:26:36;17.60;99.90
8856;DHT22;4464;50.882;4.730;2023-04-29T15:29:01;18.00;99.90
8856;DHT22;4464;50.882;4.730;2023-04-29T15:31:29;18.20;99.90
8856;DHT22;4464;50.882;4.730;2023-04-29T15:33:55;18.50;99.90
8856;DHT22;4464;50.882;4.730;2023-04-29T15:36:30;17.90;99.90
8856;DHT22;4464;50.882;4.730;2023-04-29T15:38:59;16.90;99.90
8856;DHT22;4464;50.882;4.730;2023-04-29T15:41:25;16.90;99.90
8856;DHT22;4464;50.882;4.730;2023-04-29T15:43:51;16.80;99.90
8856;DHT22;4464;50.882;4.730;2023-04-29T15:46:19;16.30;99.90
8856;DHT22;4464;50.882;4.730;2023-04-29T15:48:46;16.20;99.90
8856;DHT22;4464;50.882;4.730;2023-04-29T15:51:11;16.30;99.90
8856;DHT22;4464;50.882;4.730;2023-04-29T15:53:42;16.40;99.90
8856;DHT22;4464;50.882;4.730;2023-04-29T15:56:09;16.60;99.90
8856;DHT22;4464;50.882;4.730;2023-04-29T15:58:35;16.80;99.90
8856;DHT22;4464;50.882;4.730;2023-04-29T16:01:03;17.00;99.90
8856;DHT22;4464;50.882;4.730;2023-04-29T16:03:31;16.90;99.90
8856;DHT22;4464;50.882;4.730;2023-04-29T16:05:57;16.70;99.90
8856;DHT22;4464;50.882;4.730;2023-04-29T16:08:23;16.60;99.90
8856;DHT22;4464;50.882;4.730;2023-04-29T16:10:48;16.60;99.90
8856;DHT22;4464;50.882;4.730;2023-04-29T16:13:16;16.50;99.90
8856;DHT22;4464;50.882;4.730;2023-04-29T16:15:42;16.40;99.90
8856;DHT22;4464;50.882;4.730;2023-04-29T16:18:09;16.40;99.90
8856;DHT22;4464;50.882;4.730;2023-04-29T16:20:35;16.40;99.90
8856;DHT22;4464;50.882;4.730;2023-04-29T16:23:01;16.30;99.90
8856;DHT22;4464;50.882;4.730;2023-04-29T16:25:26;16.30;99.90
8856;DHT22;4464;50.882;4.730;2023-04-29T16:27:52;16.30;99.90
8856;DHT22;4464;50.882;4.730;2023-04-29T16:30:18;16.30;99.90